PWSweather.com
Personal Weather Stations
Station Observations
KILMORRI1
Goose Lake, Morris, IL 60450

Goose LakeMorris, IL 60450

Lat: 41.34, Lon: -88.3

Elevation: 523

Station Type:

www.gooselakeweather.com

High Low Average
Temperature 55.2°F12.9°C 41.8°F5.4°C 49.0°F9.4°C
Dew Point 54.0°F12.2°C 39.6°F4.2°C 47.2°F8.4°C
Winds 13.8 mph 22.2 kmh 2.3 mph 3.7 kmh 7.0 mph ENE11.3 kmh ENE
Wind Gusts 17.3 mph27.8 kmh 3.5 mph5.6 kmh 10.0 mph16.1 kmh
Humidity 97% 87% 94%
Pressure 30.03 in1016.9 mb 29.87 in1011.5 mb -
Precipitation 0.58 in14.7 mm - -
Hour Temp Dew Point Humidity Winds Wind Gusts Pressure Precip Precip Rate Daily Precip Total
12:00 AM 44.4°F6.9°C 40.5°F4.7°C 86% 4.6 mph NE7.4 kmh NE 10.4 mph16.7 kmh 30.00 in1015.9 mb - 0.00 in0.0 mm 0.00 in0.0 mm
12:10 AM 44.5°F6.9°C 40.9°F4.9°C 87% 8.1 mph ENE13.0 kmh ENE 9.2 mph14.8 kmh 30.00 in1015.9 mb - 0.00 in0.0 mm 0.00 in0.0 mm
12:20 AM 44.5°F6.9°C 40.9°F4.9°C 87% 8.1 mph ENE13.0 kmh ENE 12.7 mph20.4 kmh 30.01 in1016.3 mb - 0.00 in0.0 mm 0.00 in0.0 mm
12:30 AM 44.2°F6.8°C 40.6°F4.8°C 87% 10.4 mph ENE16.7 kmh ENE 13.8 mph22.2 kmh 30.00 in1015.9 mb - 0.00 in0.0 mm 0.00 in0.0 mm
12:40 AM 44.2°F6.8°C 40.6°F4.8°C 87% 3.5 mph NE5.6 kmh NE 4.6 mph7.4 kmh 30.01 in1016.3 mb - 0.00 in0.0 mm 0.00 in0.0 mm
12:50 AM 44.2°F6.8°C 40.6°F4.8°C 87% 5.8 mph N9.3 kmh N 9.2 mph14.8 kmh 30.02 in1016.6 mb - 0.00 in0.0 mm 0.00 in0.0 mm
01:00 AM 44.3°F6.8°C 40.7°F4.8°C 87% 5.8 mph ENE9.3 kmh ENE 9.2 mph14.8 kmh 30.01 in1016.3 mb - 0.00 in0.0 mm 0.00 in0.0 mm
01:10 AM 44.3°F6.8°C 40.7°F4.8°C 87% 6.9 mph ENE11.1 kmh ENE 8.1 mph13.0 kmh 30.01 in1016.3 mb - 0.00 in0.0 mm 0.00 in0.0 mm
01:20 AM 44.3°F6.8°C 40.7°F4.8°C 87% 5.8 mph E9.3 kmh E 10.4 mph16.7 kmh 30.00 in1015.9 mb - 0.00 in0.0 mm 0.00 in0.0 mm
01:30 AM 44.3°F6.8°C 40.7°F4.8°C 87% 9.2 mph ENE14.8 kmh ENE 12.7 mph20.4 kmh 30.00 in1015.9 mb - 0.00 in0.0 mm 0.00 in0.0 mm
01:40 AM 44.0°F6.7°C 40.7°F4.8°C 88% 6.9 mph NE11.1 kmh NE 9.2 mph14.8 kmh 30.02 in1016.6 mb - 0.00 in0.0 mm 0.00 in0.0 mm
01:50 AM 43.9°F6.6°C 40.3°F4.6°C 87% 6.9 mph NE11.1 kmh NE 10.4 mph16.7 kmh 30.02 in1016.6 mb - 0.00 in0.0 mm 0.00 in0.0 mm
02:00 AM 43.9°F6.6°C 40.6°F4.8°C 88% 6.9 mph ENE11.1 kmh ENE 9.2 mph14.8 kmh 30.03 in1016.9 mb - 0.03 in0.8 mm 0.03 in0.8 mm
02:10 AM 43.7°F6.5°C 41.0°F5.0°C 90% 6.9 mph ENE11.1 kmh ENE 9.2 mph14.8 kmh 30.03 in1016.9 mb - 0.13 in3.3 mm 0.14 in3.6 mm
02:20 AM 43.4°F6.3°C 40.7°F4.8°C 90% 6.9 mph NE11.1 kmh NE 9.2 mph14.8 kmh 30.02 in1016.6 mb - 0.06 in1.5 mm 0.19 in4.8 mm
02:30 AM 43.1°F6.2°C 40.9°F4.9°C 92% 10.4 mph ENE16.7 kmh ENE 13.8 mph22.2 kmh 30.00 in1015.9 mb - 0.03 in0.8 mm 0.22 in5.6 mm
02:40 AM 42.8°F6.0°C 40.6°F4.8°C 92% 9.2 mph ENE14.8 kmh ENE 12.7 mph20.4 kmh 30.00 in1015.9 mb - 0.01 in0.3 mm 0.23 in5.8 mm
02:50 AM 42.6°F5.9°C 40.4°F4.7°C 92% 6.9 mph NE11.1 kmh NE 11.5 mph18.5 kmh 30.01 in1016.3 mb - 0.00 in0.0 mm 0.23 in5.8 mm
03:00 AM 42.4°F5.8°C 40.3°F4.6°C 92% 11.5 mph NE18.5 kmh NE 15.0 mph24.1 kmh 30.00 in1015.9 mb - 0.00 in0.0 mm 0.23 in5.8 mm
03:10 AM 42.2°F5.7°C 40.0°F4.4°C 92% 10.4 mph NE16.7 kmh NE 15.0 mph24.1 kmh 30.00 in1015.9 mb - 0.00 in0.0 mm 0.23 in5.8 mm
03:20 AM 42.0°F5.6°C 39.8°F4.3°C 92% 10.4 mph ENE16.7 kmh ENE 13.8 mph22.2 kmh 30.00 in1015.9 mb - 0.00 in0.0 mm 0.23 in5.8 mm
03:30 AM 41.8°F5.4°C 39.6°F4.2°C 92% 10.4 mph ENE16.7 kmh ENE 11.5 mph18.5 kmh 29.98 in1015.2 mb - 0.00 in0.0 mm 0.23 in5.8 mm
03:40 AM 42.0°F5.6°C 40.1°F4.5°C 93% 8.1 mph ENE13.0 kmh ENE 13.8 mph22.2 kmh 29.98 in1015.2 mb - 0.00 in0.0 mm 0.23 in5.8 mm
03:50 AM 42.1°F5.6°C 40.2°F4.6°C 93% 10.4 mph E16.7 kmh E 16.1 mph25.9 kmh 29.98 in1015.2 mb - 0.00 in0.0 mm 0.23 in5.8 mm
04:00 AM 42.0°F5.6°C 40.1°F4.5°C 93% 12.7 mph ENE20.4 kmh ENE 13.8 mph22.2 kmh 29.97 in1014.9 mb - 0.00 in0.0 mm 0.23 in5.8 mm
04:10 AM 42.1°F5.6°C 40.2°F4.6°C 93% 6.9 mph ENE11.1 kmh ENE 9.2 mph14.8 kmh 29.98 in1015.2 mb - 0.00 in0.0 mm 0.23 in5.8 mm
04:20 AM 42.1°F5.6°C 40.2°F4.6°C 93% 8.1 mph E13.0 kmh E 9.2 mph14.8 kmh 29.99 in1015.6 mb - 0.00 in0.0 mm 0.23 in5.8 mm
04:30 AM 42.1°F5.6°C 40.3°F4.6°C 93% 10.4 mph ENE16.7 kmh ENE 11.5 mph18.5 kmh 29.98 in1015.2 mb - 0.00 in0.0 mm 0.23 in5.8 mm
04:40 AM 42.4°F5.8°C 40.5°F4.7°C 93% 9.2 mph E14.8 kmh E 11.5 mph18.5 kmh 29.99 in1015.6 mb - 0.00 in0.0 mm 0.23 in5.8 mm
04:50 AM 42.6°F5.9°C 40.7°F4.8°C 93% 8.1 mph E13.0 kmh E 10.4 mph16.7 kmh 29.98 in1015.2 mb - 0.00 in0.0 mm 0.23 in5.8 mm
05:00 AM 42.7°F5.9°C 40.8°F4.9°C 93% 6.9 mph E11.1 kmh E 8.1 mph13.0 kmh 29.99 in1015.6 mb - 0.00 in0.0 mm 0.23 in5.8 mm
05:10 AM 42.9°F6.1°C 41.0°F5.0°C 93% 6.9 mph E11.1 kmh E 10.4 mph16.7 kmh 29.99 in1015.6 mb - 0.00 in0.0 mm 0.23 in5.8 mm
05:20 AM 43.1°F6.2°C 41.2°F5.1°C 93% 8.1 mph ENE13.0 kmh ENE 11.5 mph18.5 kmh 29.99 in1015.6 mb - 0.00 in0.0 mm 0.23 in5.8 mm
05:30 AM 43.2°F6.2°C 41.3°F5.2°C 93% 5.8 mph ENE9.3 kmh ENE 9.2 mph14.8 kmh 29.99 in1015.6 mb - 0.01 in0.3 mm 0.24 in6.1 mm
05:40 AM 43.3°F6.3°C 41.4°F5.2°C 93% 6.9 mph ENE11.1 kmh ENE 10.4 mph16.7 kmh 30.00 in1015.9 mb - 0.00 in0.0 mm 0.24 in6.1 mm
05:50 AM 43.4°F6.3°C 41.5°F5.3°C 93% 4.6 mph ENE7.4 kmh ENE 8.1 mph13.0 kmh 30.01 in1016.3 mb - 0.04 in1.0 mm 0.28 in7.1 mm
06:00 AM 43.5°F6.4°C 41.9°F5.5°C 94% 4.6 mph NE7.4 kmh NE 5.8 mph9.3 kmh 30.00 in1015.9 mb - 0.06 in1.5 mm 0.33 in8.4 mm
06:10 AM 43.3°F6.3°C 41.7°F5.4°C 94% 8.1 mph NE13.0 kmh NE 11.5 mph18.5 kmh 29.98 in1015.2 mb - 0.05 in1.3 mm 0.37 in9.4 mm
06:20 AM 43.3°F6.3°C 41.7°F5.4°C 94% 6.9 mph ENE11.1 kmh ENE 10.4 mph16.7 kmh 29.97 in1014.9 mb - 0.03 in0.8 mm 0.39 in9.9 mm
06:30 AM 43.5°F6.4°C 42.2°F5.7°C 95% 6.9 mph E11.1 kmh E 10.4 mph16.7 kmh 29.98 in1015.2 mb - 0.00 in0.0 mm 0.39 in9.9 mm
06:40 AM 43.7°F6.5°C 42.4°F5.8°C 95% 5.8 mph ENE9.3 kmh ENE 6.9 mph11.1 kmh 29.99 in1015.6 mb - 0.00 in0.0 mm 0.39 in9.9 mm
06:50 AM 43.8°F6.6°C 42.5°F5.8°C 95% 11.5 mph ENE18.5 kmh ENE 15.0 mph24.1 kmh 29.99 in1015.6 mb - 0.01 in0.3 mm 0.40 in10.2 mm
07:00 AM 43.7°F6.5°C 42.4°F5.8°C 95% 6.9 mph ENE11.1 kmh ENE 11.5 mph18.5 kmh 29.98 in1015.2 mb - 0.01 in0.3 mm 0.41 in10.4 mm
07:10 AM 43.5°F6.4°C 42.2°F5.7°C 95% 4.6 mph ENE7.4 kmh ENE 8.1 mph13.0 kmh 29.99 in1015.6 mb - 0.00 in0.0 mm 0.41 in10.4 mm
07:20 AM 43.7°F6.5°C 42.4°F5.8°C 95% 6.9 mph ENE11.1 kmh ENE 13.8 mph22.2 kmh 29.98 in1015.2 mb - 0.06 in1.5 mm 0.47 in11.9 mm
07:30 AM 43.8°F6.6°C 42.5°F5.8°C 95% 6.9 mph ENE11.1 kmh ENE 10.4 mph16.7 kmh 29.98 in1015.2 mb - 0.02 in0.5 mm 0.48 in12.2 mm
07:40 AM 43.8°F6.6°C 42.5°F5.8°C 95% 6.9 mph NE11.1 kmh NE 8.1 mph13.0 kmh 29.97 in1014.9 mb - 0.01 in0.3 mm 0.49 in12.4 mm
07:50 AM 43.8°F6.6°C 42.4°F5.8°C 95% 8.1 mph ENE13.0 kmh ENE 11.5 mph18.5 kmh 29.97 in1014.9 mb - 0.00 in0.0 mm 0.49 in12.4 mm
08:00 AM 44.0°F6.7°C 42.7°F5.9°C 95% 9.2 mph ENE14.8 kmh ENE 11.5 mph18.5 kmh 29.97 in1014.9 mb - 0.02 in0.5 mm 0.51 in13.0 mm
08:10 AM 44.2°F6.8°C 42.9°F6.1°C 95% 6.9 mph ENE11.1 kmh ENE 8.1 mph13.0 kmh 29.97 in1014.9 mb - 0.00 in0.0 mm 0.51 in13.0 mm
08:20 AM 44.5°F6.9°C 43.4°F6.3°C 96% 9.2 mph ENE14.8 kmh ENE 11.5 mph18.5 kmh 29.96 in1014.6 mb - 0.00 in0.0 mm 0.51 in13.0 mm
08:30 AM 44.5°F6.9°C 43.4°F6.3°C 96% 10.4 mph ENE16.7 kmh ENE 12.7 mph20.4 kmh 29.96 in1014.6 mb - 0.00 in0.0 mm 0.51 in13.0 mm
08:40 AM 44.5°F6.9°C 43.4°F6.3°C 96% 12.7 mph ENE20.4 kmh ENE 17.3 mph27.8 kmh 29.95 in1014.2 mb - 0.00 in0.0 mm 0.51 in13.0 mm
08:50 AM 44.6°F7.0°C 43.5°F6.4°C 96% 11.5 mph E18.5 kmh E 15.0 mph24.1 kmh 29.95 in1014.2 mb - 0.00 in0.0 mm 0.51 in13.0 mm
09:00 AM 44.8°F7.1°C 43.7°F6.5°C 96% 11.5 mph E18.5 kmh E 16.1 mph25.9 kmh 29.95 in1014.2 mb - 0.01 in0.3 mm 0.52 in13.2 mm
09:10 AM 45.0°F7.2°C 43.7°F6.5°C 95% 13.8 mph E22.2 kmh E 17.3 mph27.8 kmh 29.96 in1014.6 mb - 0.01 in0.3 mm 0.53 in13.5 mm
09:20 AM 45.1°F7.3°C 44.0°F6.7°C 96% 12.7 mph E20.4 kmh E 13.8 mph22.2 kmh 29.95 in1014.2 mb - 0.00 in0.0 mm 0.53 in13.5 mm
09:30 AM 45.3°F7.4°C 44.2°F6.8°C 96% 10.4 mph E16.7 kmh E 13.8 mph22.2 kmh 29.96 in1014.6 mb - 0.00 in0.0 mm 0.53 in13.5 mm
09:40 AM 45.5°F7.5°C 44.2°F6.8°C 95% 11.5 mph E18.5 kmh E 16.1 mph25.9 kmh 29.97 in1014.9 mb - 0.01 in0.3 mm 0.54 in13.7 mm
09:50 AM 45.7°F7.6°C 44.4°F6.9°C 95% 12.7 mph E20.4 kmh E 17.3 mph27.8 kmh 29.97 in1014.9 mb - 0.00 in0.0 mm 0.54 in13.7 mm
10:00 AM 45.8°F7.7°C 44.8°F7.1°C 96% 11.5 mph ENE18.5 kmh ENE 16.1 mph25.9 kmh 29.97 in1014.9 mb - 0.00 in0.0 mm 0.54 in13.7 mm
10:10 AM 46.3°F7.9°C 45.2°F7.3°C 96% 8.1 mph E13.0 kmh E 12.7 mph20.4 kmh 29.97 in1014.9 mb - 0.00 in0.0 mm 0.54 in13.7 mm
10:20 AM 46.7°F8.2°C 45.7°F7.6°C 96% 10.4 mph ENE16.7 kmh ENE 11.5 mph18.5 kmh 29.97 in1014.9 mb - 0.00 in0.0 mm 0.54 in13.7 mm
10:30 AM 47.0°F8.3°C 45.9°F7.7°C 96% 11.5 mph ENE18.5 kmh ENE 15.0 mph24.1 kmh 29.97 in1014.9 mb - 0.00 in0.0 mm 0.54 in13.7 mm
10:40 AM 47.3°F8.5°C 46.2°F7.9°C 96% 12.7 mph E20.4 kmh E 13.8 mph22.2 kmh 29.97 in1014.9 mb - 0.00 in0.0 mm 0.54 in13.7 mm
10:50 AM 47.8°F8.8°C 46.7°F8.2°C 96% 9.2 mph E14.8 kmh E 11.5 mph18.5 kmh 29.97 in1014.9 mb - 0.00 in0.0 mm 0.54 in13.7 mm
11:00 AM 48.5°F9.2°C 47.4°F8.6°C 96% 12.7 mph E20.4 kmh E 15.0 mph24.1 kmh 29.97 in1014.9 mb - 0.00 in0.0 mm 0.54 in13.7 mm
11:10 AM 48.9°F9.4°C 47.5°F8.6°C 95% 8.1 mph ENE13.0 kmh ENE 11.5 mph18.5 kmh 29.97 in1014.9 mb - 0.00 in0.0 mm 0.54 in13.7 mm
11:20 AM 49.7°F9.8°C 48.3°F9.1°C 95% 6.9 mph E11.1 kmh E 9.2 mph14.8 kmh 29.97 in1014.9 mb - 0.00 in0.0 mm 0.54 in13.7 mm
11:30 AM 50.2°F10.1°C 48.8°F9.3°C 95% 9.2 mph E14.8 kmh E 11.5 mph18.5 kmh 29.97 in1014.9 mb - 0.00 in0.0 mm 0.54 in13.7 mm
11:40 AM 50.8°F10.4°C 49.4°F9.7°C 95% 8.1 mph ENE13.0 kmh ENE 13.8 mph22.2 kmh 29.97 in1014.9 mb - 0.00 in0.0 mm 0.54 in13.7 mm
11:50 AM 51.6°F10.9°C 49.7°F9.8°C 93% 9.2 mph E14.8 kmh E 15.0 mph24.1 kmh 29.97 in1014.9 mb - 0.00 in0.0 mm 0.54 in13.7 mm
12:00 PM 52.1°F11.2°C 50.2°F10.1°C 93% 8.1 mph E13.0 kmh E 12.7 mph20.4 kmh 29.96 in1014.6 mb - 0.00 in0.0 mm 0.54 in13.7 mm
12:10 PM 52.6°F11.4°C 50.6°F10.3°C 93% 4.6 mph E7.4 kmh E 8.1 mph13.0 kmh 29.96 in1014.6 mb - 0.00 in0.0 mm 0.54 in13.7 mm
12:20 PM 53.1°F11.7°C 51.1°F10.6°C 93% 9.2 mph E14.8 kmh E 10.4 mph16.7 kmh 29.96 in1014.6 mb - 0.00 in0.0 mm 0.54 in13.7 mm
12:30 PM 53.9°F12.2°C 51.6°F10.9°C 92% 8.1 mph E13.0 kmh E 9.2 mph14.8 kmh 29.96 in1014.6 mb - 0.00 in0.0 mm 0.54 in13.7 mm
12:40 PM 53.8°F12.1°C 51.5°F10.8°C 92% 9.2 mph E14.8 kmh E 11.5 mph18.5 kmh 29.96 in1014.6 mb - 0.00 in0.0 mm 0.54 in13.7 mm
12:50 PM 54.0°F12.2°C 51.7°F10.9°C 92% 4.6 mph E7.4 kmh E 6.9 mph11.1 kmh 29.95 in1014.2 mb - 0.00 in0.0 mm 0.54 in13.7 mm
01:00 PM 54.6°F12.6°C 51.7°F10.9°C 90% 10.4 mph ENE16.7 kmh ENE 11.5 mph18.5 kmh 29.95 in1014.2 mb - 0.00 in0.0 mm 0.54 in13.7 mm
01:10 PM 54.6°F12.6°C 51.7°F10.9°C 90% 5.8 mph E9.3 kmh E 6.9 mph11.1 kmh 29.95 in1014.2 mb - 0.00 in0.0 mm 0.54 in13.7 mm
01:20 PM 54.2°F12.3°C 51.4°F10.8°C 90% 6.9 mph E11.1 kmh E 8.1 mph13.0 kmh 29.95 in1014.2 mb - 0.00 in0.0 mm 0.54 in13.7 mm
01:30 PM 54.3°F12.4°C 51.8°F11.0°C 91% 5.8 mph NE9.3 kmh NE 9.2 mph14.8 kmh 29.95 in1014.2 mb - 0.00 in0.0 mm 0.54 in13.7 mm
01:40 PM 54.3°F12.4°C 51.8°F11.0°C 91% 8.1 mph ENE13.0 kmh ENE 10.4 mph16.7 kmh 29.94 in1013.9 mb - 0.00 in0.0 mm 0.54 in13.7 mm
01:50 PM 54.5°F12.5°C 51.9°F11.1°C 91% 6.9 mph ENE11.1 kmh ENE 9.2 mph14.8 kmh 29.94 in1013.9 mb - 0.00 in0.0 mm 0.54 in13.7 mm
02:00 PM 54.8°F12.7°C 52.2°F11.2°C 91% 6.9 mph E11.1 kmh E 9.2 mph14.8 kmh 29.95 in1014.2 mb - 0.00 in0.0 mm 0.54 in13.7 mm
02:10 PM 55.0°F12.8°C 52.4°F11.3°C 91% 8.1 mph ENE13.0 kmh ENE 10.4 mph16.7 kmh 29.94 in1013.9 mb - 0.00 in0.0 mm 0.54 in13.7 mm
02:20 PM 55.1°F12.8°C 52.5°F11.4°C 91% 5.8 mph E9.3 kmh E 8.1 mph13.0 kmh 29.94 in1013.9 mb - 0.01 in0.3 mm 0.55 in14.0 mm
02:30 PM 55.2°F12.9°C 52.9°F11.6°C 92% 8.1 mph E13.0 kmh E 9.2 mph14.8 kmh 29.94 in1013.9 mb - 0.00 in0.0 mm 0.55 in14.0 mm
02:40 PM 54.8°F12.7°C 52.5°F11.4°C 92% 5.8 mph E9.3 kmh E 9.2 mph14.8 kmh 29.94 in1013.9 mb - 0.00 in0.0 mm 0.55 in14.0 mm
02:50 PM 54.3°F12.4°C 51.7°F10.9°C 91% 5.8 mph ENE9.3 kmh ENE 8.1 mph13.0 kmh 29.94 in1013.9 mb - 0.00 in0.0 mm 0.55 in14.0 mm
03:00 PM 54.2°F12.3°C 52.2°F11.2°C 93% 4.6 mph E7.4 kmh E 5.8 mph9.3 kmh 29.94 in1013.9 mb - 0.00 in0.0 mm 0.55 in14.0 mm
03:10 PM 54.5°F12.5°C 52.2°F11.2°C 92% 5.8 mph ENE9.3 kmh ENE 6.9 mph11.1 kmh 29.94 in1013.9 mb - 0.00 in0.0 mm 0.55 in14.0 mm
03:20 PM 54.5°F12.5°C 52.2°F11.2°C 92% 3.5 mph ENE5.6 kmh ENE 4.6 mph7.4 kmh 29.94 in1013.9 mb - 0.00 in0.0 mm 0.55 in14.0 mm
03:30 PM 54.6°F12.6°C 52.3°F11.3°C 92% 3.5 mph ENE5.6 kmh ENE 4.6 mph7.4 kmh 29.94 in1013.9 mb - 0.00 in0.0 mm 0.55 in14.0 mm
03:40 PM 54.6°F12.6°C 52.1°F11.2°C 91% 4.6 mph ENE7.4 kmh ENE 9.2 mph14.8 kmh 29.94 in1013.9 mb - 0.00 in0.0 mm 0.55 in14.0 mm
03:50 PM 54.7°F12.6°C 52.1°F11.2°C 91% 5.8 mph ENE9.3 kmh ENE 6.9 mph11.1 kmh 29.94 in1013.9 mb - 0.00 in0.0 mm 0.55 in14.0 mm
04:00 PM 54.7°F12.6°C 52.4°F11.3°C 92% 4.6 mph E7.4 kmh E 5.8 mph9.3 kmh 29.94 in1013.9 mb - 0.00 in0.0 mm 0.55 in14.0 mm
04:10 PM 54.6°F12.6°C 52.3°F11.3°C 92% 8.1 mph ENE13.0 kmh ENE 10.4 mph16.7 kmh 29.93 in1013.5 mb - 0.00 in0.0 mm 0.55 in14.0 mm
04:20 PM 54.8°F12.7°C 52.8°F11.6°C 93% 3.5 mph NE5.6 kmh NE 5.8 mph9.3 kmh 29.93 in1013.5 mb - 0.00 in0.0 mm 0.55 in14.0 mm
04:30 PM 54.3°F12.4°C 52.0°F11.1°C 92% 3.5 mph NE5.6 kmh NE 4.6 mph7.4 kmh 29.93 in1013.5 mb - 0.00 in0.0 mm 0.55 in14.0 mm
04:40 PM 54.0°F12.2°C 51.7°F10.9°C 92% 4.6 mph ENE7.4 kmh ENE 6.9 mph11.1 kmh 29.93 in1013.5 mb - 0.00 in0.0 mm 0.55 in14.0 mm
04:50 PM 53.9°F12.2°C 51.9°F11.1°C 93% 3.5 mph ENE5.6 kmh ENE 3.5 mph5.6 kmh 29.93 in1013.5 mb - 0.00 in0.0 mm 0.55 in14.0 mm
05:00 PM 53.8°F12.1°C 52.1°F11.2°C 94% 4.6 mph NE7.4 kmh NE 5.8 mph9.3 kmh 29.93 in1013.5 mb - 0.00 in0.0 mm 0.55 in14.0 mm
05:10 PM 53.8°F12.1°C 52.1°F11.2°C 94% 4.6 mph NE7.4 kmh NE 5.8 mph9.3 kmh 29.92 in1013.2 mb - 0.00 in0.0 mm 0.55 in14.0 mm
05:20 PM 53.6°F12.0°C 51.6°F10.9°C 93% 4.6 mph ENE7.4 kmh ENE 9.2 mph14.8 kmh 29.92 in1013.2 mb - 0.00 in0.0 mm 0.55 in14.0 mm
05:30 PM 53.4°F11.9°C 51.4°F10.8°C 93% 3.5 mph NE5.6 kmh NE 8.1 mph13.0 kmh 29.92 in1013.2 mb - 0.00 in0.0 mm 0.55 in14.0 mm
05:40 PM 53.2°F11.8°C 51.2°F10.7°C 93% 4.6 mph NE7.4 kmh NE 5.8 mph9.3 kmh 29.92 in1013.2 mb - 0.00 in0.0 mm 0.55 in14.0 mm
05:50 PM 53.0°F11.7°C 51.0°F10.6°C 93% 4.6 mph NE7.4 kmh NE 5.8 mph9.3 kmh 29.92 in1013.2 mb - 0.00 in0.0 mm 0.55 in14.0 mm
06:00 PM 52.7°F11.5°C 50.7°F10.4°C 93% 4.6 mph NE7.4 kmh NE 4.6 mph7.4 kmh 29.92 in1013.2 mb - 0.00 in0.0 mm 0.55 in14.0 mm
06:10 PM 52.4°F11.3°C 50.4°F10.2°C 93% 5.8 mph NE9.3 kmh NE 6.9 mph11.1 kmh 29.92 in1013.2 mb - 0.00 in0.0 mm 0.55 in14.0 mm
06:20 PM 52.1°F11.2°C 50.1°F10.1°C 93% 6.9 mph NE11.1 kmh NE 8.1 mph13.0 kmh 29.92 in1013.2 mb - 0.00 in0.0 mm 0.55 in14.0 mm
06:30 PM 51.9°F11.1°C 49.9°F9.9°C 93% 6.9 mph NE11.1 kmh NE 8.1 mph13.0 kmh 29.92 in1013.2 mb - 0.00 in0.0 mm 0.55 in14.0 mm
06:40 PM 51.8°F11.0°C 50.1°F10.1°C 94% 3.5 mph ENE5.6 kmh ENE 4.6 mph7.4 kmh 29.93 in1013.5 mb - 0.00 in0.0 mm 0.55 in14.0 mm
06:50 PM 51.6°F10.9°C 49.6°F9.8°C 93% 3.5 mph ENE5.6 kmh ENE 6.9 mph11.1 kmh 29.93 in1013.5 mb - 0.00 in0.0 mm 0.55 in14.0 mm
07:00 PM 51.5°F10.8°C 49.8°F9.9°C 94% 4.6 mph ENE7.4 kmh ENE 6.9 mph11.1 kmh 29.93 in1013.5 mb - 0.00 in0.0 mm 0.55 in14.0 mm
07:10 PM 51.6°F10.9°C 49.9°F9.9°C 94% 5.8 mph ENE9.3 kmh ENE 6.9 mph11.1 kmh 29.93 in1013.5 mb - 0.00 in0.0 mm 0.55 in14.0 mm
07:20 PM 51.5°F10.8°C 49.8°F9.9°C 94% 4.6 mph ENE7.4 kmh ENE 6.9 mph11.1 kmh 29.93 in1013.5 mb - 0.00 in0.0 mm 0.55 in14.0 mm
07:30 PM 51.2°F10.7°C 49.5°F9.7°C 94% 9.2 mph ENE14.8 kmh ENE 11.5 mph18.5 kmh 29.93 in1013.5 mb - 0.00 in0.0 mm 0.55 in14.0 mm
07:40 PM 50.9°F10.5°C 49.2°F9.6°C 94% 9.2 mph ENE14.8 kmh ENE 11.5 mph18.5 kmh 29.93 in1013.5 mb - 0.00 in0.0 mm 0.55 in14.0 mm
07:50 PM 50.8°F10.4°C 49.1°F9.5°C 94% 4.6 mph ENE7.4 kmh ENE 8.1 mph13.0 kmh 29.93 in1013.5 mb - 0.00 in0.0 mm 0.55 in14.0 mm
08:00 PM 50.7°F10.4°C 49.0°F9.4°C 94% 5.8 mph ENE9.3 kmh ENE 8.1 mph13.0 kmh 29.93 in1013.5 mb - 0.00 in0.0 mm 0.55 in14.0 mm
08:10 PM 50.5°F10.3°C 49.1°F9.5°C 95% 3.5 mph ENE5.6 kmh ENE 4.6 mph7.4 kmh 29.94 in1013.9 mb - 0.00 in0.0 mm 0.55 in14.0 mm
08:20 PM 50.4°F10.2°C 49.0°F9.4°C 95% 5.8 mph ENE9.3 kmh ENE 8.1 mph13.0 kmh 29.94 in1013.9 mb - 0.00 in0.0 mm 0.55 in14.0 mm
08:30 PM 50.3°F10.2°C 48.9°F9.4°C 95% 6.9 mph ENE11.1 kmh ENE 9.2 mph14.8 kmh 29.93 in1013.5 mb - 0.01 in0.3 mm 0.56 in14.2 mm
08:40 PM 50.2°F10.1°C 48.8°F9.3°C 95% 5.8 mph ENE9.3 kmh ENE 6.9 mph11.1 kmh 29.94 in1013.9 mb - 0.00 in0.0 mm 0.56 in14.2 mm
08:50 PM 50.1°F10.1°C 48.7°F9.3°C 95% 5.8 mph ENE9.3 kmh ENE 9.2 mph14.8 kmh 29.94 in1013.9 mb - 0.00 in0.0 mm 0.56 in14.2 mm
09:00 PM 50.0°F10.0°C 48.6°F9.2°C 95% 5.8 mph ENE9.3 kmh ENE 9.2 mph14.8 kmh 29.94 in1013.9 mb - 0.00 in0.0 mm 0.56 in14.2 mm
09:10 PM 49.8°F9.9°C 48.4°F9.1°C 95% 4.6 mph ENE7.4 kmh ENE 6.9 mph11.1 kmh 29.94 in1013.9 mb - 0.00 in0.0 mm 0.56 in14.2 mm
09:20 PM 49.7°F9.8°C 48.3°F9.1°C 95% 4.6 mph ENE7.4 kmh ENE 9.2 mph14.8 kmh 29.93 in1013.5 mb - 0.00 in0.0 mm 0.56 in14.2 mm
09:30 PM 49.7°F9.8°C 48.3°F9.1°C 95% 3.5 mph E5.6 kmh E 6.9 mph11.1 kmh 29.93 in1013.5 mb - 0.00 in0.0 mm 0.56 in14.2 mm
09:40 PM 49.8°F9.9°C 48.4°F9.1°C 95% 2.3 mph E3.7 kmh E 4.6 mph7.4 kmh 29.93 in1013.5 mb - 0.01 in0.3 mm 0.57 in14.5 mm
09:50 PM 50.0°F10.0°C 48.9°F9.4°C 96% 3.5 mph ENE5.6 kmh ENE 3.5 mph5.6 kmh 29.93 in1013.5 mb - 0.00 in0.0 mm 0.57 in14.5 mm
10:00 PM 50.2°F10.1°C 49.1°F9.5°C 96% 4.6 mph E7.4 kmh E 4.6 mph7.4 kmh 29.93 in1013.5 mb - 0.00 in0.0 mm 0.57 in14.5 mm
10:10 PM 50.4°F10.2°C 49.3°F9.6°C 96% 5.8 mph E9.3 kmh E 8.1 mph13.0 kmh 29.92 in1013.2 mb - 0.00 in0.0 mm 0.57 in14.5 mm
10:20 PM 50.6°F10.3°C 49.5°F9.7°C 96% 4.6 mph E7.4 kmh E 5.8 mph9.3 kmh 29.92 in1013.2 mb - 0.00 in0.0 mm 0.57 in14.5 mm
10:30 PM 51.2°F10.7°C 50.4°F10.2°C 97% 4.6 mph E7.4 kmh E 6.9 mph11.1 kmh 29.92 in1013.2 mb - 0.00 in0.0 mm 0.57 in14.5 mm
10:40 PM 51.8°F11.0°C 51.0°F10.6°C 97% 5.8 mph E9.3 kmh E 8.1 mph13.0 kmh 29.92 in1013.2 mb - 0.00 in0.0 mm 0.57 in14.5 mm
10:50 PM 52.0°F11.1°C 51.2°F10.7°C 97% 4.6 mph E7.4 kmh E 8.1 mph13.0 kmh 29.91 in1012.9 mb - 0.00 in0.0 mm 0.57 in14.5 mm
11:00 PM 52.0°F11.1°C 51.1°F10.6°C 97% 4.6 mph E7.4 kmh E 6.9 mph11.1 kmh 29.91 in1012.9 mb - 0.00 in0.0 mm 0.57 in14.5 mm
11:10 PM 52.2°F11.2°C 51.4°F10.8°C 97% 4.6 mph ESE7.4 kmh ESE 6.9 mph11.1 kmh 29.91 in1012.9 mb - 0.00 in0.0 mm 0.57 in14.5 mm
11:20 PM 52.7°F11.5°C 51.9°F11.1°C 97% 5.8 mph E9.3 kmh E 9.2 mph14.8 kmh 29.90 in1012.5 mb - 0.00 in0.0 mm 0.57 in14.5 mm
11:30 PM 53.6°F12.0°C 52.8°F11.6°C 97% 8.1 mph E13.0 kmh E 11.5 mph18.5 kmh 29.89 in1012.2 mb - 0.00 in0.0 mm 0.57 in14.5 mm
11:40 PM 54.2°F12.3°C 53.4°F11.9°C 97% 8.1 mph E13.0 kmh E 10.4 mph16.7 kmh 29.89 in1012.2 mb - 0.01 in0.3 mm 0.58 in14.7 mm
11:50 PM 54.5°F12.5°C 53.7°F12.1°C 97% 8.1 mph ESE13.0 kmh ESE 10.4 mph16.7 kmh 29.89 in1012.2 mb - 0.00 in0.0 mm 0.58 in14.7 mm